createdAt,value
2022-10-19T00:00:39.750Z,14.51
2022-10-19T00:03:31.031Z,14.50
2022-10-19T00:06:11.902Z,14.53
2022-10-19T00:08:43.679Z,14.53
2022-10-19T00:11:15.286Z,14.52
2022-10-19T00:13:46.640Z,14.51
2022-10-19T00:16:20.335Z,14.49
2022-10-19T00:18:50.166Z,14.48
2022-10-19T00:21:22.091Z,14.46
2022-10-19T00:23:53.685Z,14.43
2022-10-19T00:26:25.343Z,14.43
2022-10-19T00:28:57.712Z,14.42
2022-10-19T00:31:29.555Z,14.44
2022-10-19T00:34:01.532Z,14.48
2022-10-19T00:36:35.751Z,14.52
2022-10-19T00:39:09.672Z,14.56
2022-10-19T00:41:42.152Z,14.58
2022-10-19T00:44:44.050Z,14.60
2022-10-19T00:47:15.881Z,14.60
2022-10-19T00:49:47.880Z,14.59
2022-10-19T00:52:24.622Z,14.59
2022-10-19T00:54:57.791Z,14.57
2022-10-19T00:57:32.658Z,14.56
2022-10-19T01:00:07.017Z,14.55
2022-10-19T01:02:38.820Z,14.54
2022-10-19T01:05:12.398Z,14.56
2022-10-19T01:07:43.981Z,14.57
2022-10-19T01:10:15.730Z,14.59
2022-10-19T01:12:59.367Z,14.61
2022-10-19T01:15:42.171Z,14.63
2022-10-19T01:18:20.906Z,14.60
2022-10-19T01:21:15.499Z,14.56
2022-10-19T01:24:07.752Z,14.55
2022-10-19T01:27:12.578Z,14.53
2022-10-19T01:30:01.225Z,14.52
2022-10-19T01:32:41.979Z,14.52
2022-10-19T01:35:19.890Z,14.54
2022-10-19T01:37:57.098Z,14.58
2022-10-19T01:40:32.620Z,14.63
2022-10-19T01:43:09.224Z,14.67
2022-10-19T01:45:47.214Z,14.66
2022-10-19T01:48:23.079Z,14.65
2022-10-19T01:50:58.929Z,14.63
2022-10-19T01:53:35.698Z,14.59
2022-10-19T01:56:09.796Z,14.57
2022-10-19T01:58:44.951Z,14.54
2022-10-19T02:01:20.924Z,14.53
2022-10-19T02:03:54.115Z,14.54
2022-10-19T02:06:26.054Z,14.55
2022-10-19T02:08:57.515Z,14.56
2022-10-19T02:11:29.783Z,14.58
2022-10-19T02:14:06.009Z,14.58
2022-10-19T02:16:41.910Z,14.56
2022-10-19T02:19:16.624Z,14.55
2022-10-19T02:21:48.166Z,14.52
2022-10-19T02:24:19.666Z,14.50
2022-10-19T02:26:51.644Z,14.45
2022-10-19T02:29:23.321Z,14.39
2022-10-19T02:31:54.652Z,14.34
2022-10-19T02:34:26.514Z,14.33
2022-10-19T02:36:58.458Z,14.34
2022-10-19T02:39:30.371Z,14.37
2022-10-19T02:42:07.509Z,14.39
2022-10-19T02:44:43.499Z,14.38
2022-10-19T02:47:19.950Z,14.34
2022-10-19T02:49:52.954Z,14.30
2022-10-19T02:52:24.215Z,14.25
2022-10-19T02:54:55.536Z,14.20
2022-10-19T02:57:27.562Z,14.17
2022-10-19T02:59:59.249Z,14.16
2022-10-19T03:02:30.588Z,14.15
2022-10-19T03:05:02.002Z,14.16
2022-10-19T03:07:33.538Z,14.17
2022-10-19T03:10:05.367Z,14.19
2022-10-19T03:12:36.794Z,14.20
2022-10-19T03:15:11.764Z,14.21
2022-10-19T03:17:43.169Z,14.19
2022-10-19T03:20:14.487Z,14.16
2022-10-19T03:22:45.876Z,14.11
2022-10-19T03:25:17.686Z,14.05
2022-10-19T03:27:49.111Z,13.96
2022-10-19T03:30:20.460Z,13.88
2022-10-19T03:32:51.836Z,13.79
2022-10-19T03:35:23.182Z,13.73
2022-10-19T03:37:54.539Z,13.68
2022-10-19T03:40:25.964Z,13.63
2022-10-19T03:42:57.278Z,13.59
2022-10-19T03:45:28.632Z,13.55
2022-10-19T03:48:00.125Z,13.48
2022-10-19T03:50:31.447Z,13.40
2022-10-19T03:55:39.077Z,13.31
2022-10-19T03:58:10.399Z,13.26
2022-10-19T04:00:42.113Z,13.22
2022-10-19T04:03:13.504Z,13.17
2022-10-19T04:05:44.823Z,13.15
2022-10-19T04:08:16.304Z,13.14
2022-10-19T04:10:47.848Z,13.13
2022-10-19T04:13:19.300Z,13.11
2022-10-19T04:15:50.644Z,13.08
2022-10-19T04:18:22.073Z,13.04
2022-10-19T04:20:58.593Z,12.98
2022-10-19T04:23:31.765Z,12.92
2022-10-19T04:26:04.933Z,12.85
2022-10-19T04:28:37.006Z,12.77
2022-10-19T04:31:09.401Z,12.70
2022-10-19T04:33:41.355Z,12.62
2022-10-19T04:36:13.649Z,12.55
2022-10-19T04:38:45.061Z,12.50
2022-10-19T04:41:19.713Z,12.47
2022-10-19T04:43:55.968Z,12.46
2022-10-19T04:46:29.007Z,12.42
2022-10-19T04:49:01.216Z,12.38
2022-10-19T04:51:32.984Z,12.34
2022-10-19T04:54:04.861Z,12.29
2022-10-19T04:56:36.225Z,12.21
2022-10-19T04:59:07.610Z,12.15
2022-10-19T05:01:44.758Z,12.09
2022-10-19T05:04:18.714Z,12.02
2022-10-19T05:06:50.048Z,11.95
2022-10-19T05:09:22.441Z,11.91
2022-10-19T05:11:53.742Z,11.89
2022-10-19T05:14:25.424Z,11.87
2022-10-19T05:16:56.875Z,11.87
2022-10-19T05:19:28.305Z,11.84
2022-10-19T05:21:59.753Z,11.82
2022-10-19T05:24:32.655Z,11.80
2022-10-19T05:27:03.956Z,11.75
2022-10-19T05:29:35.324Z,11.70
2022-10-19T05:32:07.109Z,11.64
2022-10-19T05:34:38.426Z,11.62
2022-10-19T05:37:09.854Z,11.62
2022-10-19T05:39:41.522Z,11.65
2022-10-19T05:42:13.255Z,11.69
2022-10-19T05:44:46.676Z,11.75
2022-10-19T05:47:18.157Z,11.83
2022-10-19T05:49:50.103Z,11.92
2022-10-19T05:52:21.378Z,11.97
2022-10-19T05:54:54.070Z,12.01
2022-10-19T05:57:25.705Z,12.03
2022-10-19T05:59:58.418Z,12.08
2022-10-19T06:02:29.695Z,12.12
2022-10-19T06:05:01.012Z,12.13
2022-10-19T06:07:33.863Z,12.14
2022-10-19T06:10:10.054Z,12.13
2022-10-19T06:12:41.588Z,12.15
2022-10-19T06:15:13.465Z,12.20
2022-10-19T06:17:44.842Z,12.26
2022-10-19T06:20:17.485Z,12.32
2022-10-19T06:22:48.867Z,12.40
2022-10-19T06:25:21.241Z,12.48
2022-10-19T06:27:53.164Z,12.56
2022-10-19T06:30:26.175Z,12.60
2022-10-19T06:32:57.609Z,12.65
2022-10-19T06:35:29.071Z,12.68
2022-10-19T06:38:01.144Z,12.71
2022-10-19T06:40:32.895Z,12.73
2022-10-19T06:43:04.834Z,12.71
2022-10-19T06:45:38.189Z,12.73
2022-10-19T06:48:09.759Z,12.80
2022-10-19T06:50:42.107Z,12.86
2022-10-19T06:53:13.591Z,12.93
2022-10-19T06:55:45.029Z,13.00
2022-10-19T06:58:16.463Z,13.07
2022-10-19T07:00:54.871Z,13.12
2022-10-19T07:03:26.900Z,13.14
2022-10-19T07:06:00.035Z,13.13
2022-10-19T07:08:32.961Z,13.13
2022-10-19T07:11:07.488Z,13.14
2022-10-19T07:13:39.335Z,13.13
2022-10-19T07:16:17.609Z,13.12
2022-10-19T07:18:53.809Z,13.15
2022-10-19T07:21:25.542Z,13.19
2022-10-19T07:23:56.917Z,13.28
2022-10-19T07:26:30.637Z,13.36
2022-10-19T07:29:02.944Z,13.39
2022-10-19T07:31:35.058Z,13.41
2022-10-19T07:34:07.603Z,13.50
2022-10-19T07:36:39.851Z,13.85
2022-10-19T07:39:12.611Z,14.25
2022-10-19T07:41:44.525Z,14.44
2022-10-19T07:44:16.696Z,14.51
2022-10-19T07:46:47.996Z,14.57
2022-10-19T07:49:20.759Z,14.79
2022-10-19T07:51:55.058Z,15.10
2022-10-19T07:54:27.477Z,15.14
2022-10-19T07:56:58.859Z,15.16
2022-10-19T07:59:30.665Z,15.18
2022-10-19T08:02:04.713Z,15.17
2022-10-19T08:07:30.037Z,14.99
2022-10-19T08:10:01.478Z,14.88
2022-10-19T08:12:36.235Z,14.80
2022-10-19T08:15:09.540Z,14.67
2022-10-19T08:17:40.868Z,14.53
2022-10-19T08:20:13.200Z,14.42
2022-10-19T08:22:45.379Z,14.32
2022-10-19T08:25:17.028Z,14.27
2022-10-19T08:27:48.656Z,14.24
2022-10-19T08:30:20.328Z,14.24
2022-10-19T08:32:51.758Z,14.23
2022-10-19T08:35:23.071Z,14.21
2022-10-19T08:37:57.266Z,14.21
2022-10-19T08:40:32.105Z,14.48
2022-10-19T08:43:13.487Z,14.97
2022-10-19T08:45:50.874Z,15.18
2022-10-19T08:48:28.354Z,15.27
2022-10-19T08:51:01.833Z,15.19
2022-10-19T08:53:44.795Z,15.04
2022-10-19T08:56:51.110Z,14.87
2022-10-19T08:59:34.908Z,14.71
2022-10-19T09:02:14.847Z,14.54
2022-10-19T09:04:51.447Z,14.43
2022-10-19T09:07:27.836Z,14.37
2022-10-19T09:10:03.889Z,14.34
2022-10-19T09:12:43.432Z,14.39
2022-10-19T09:15:19.467Z,14.46
2022-10-19T09:17:51.087Z,14.54
2022-10-19T09:20:26.228Z,14.61
2022-10-19T09:23:13.495Z,14.74
2022-10-19T09:25:45.075Z,14.99
2022-10-19T09:28:33.913Z,15.07
2022-10-19T09:31:15.945Z,15.04
2022-10-19T09:33:53.819Z,15.01
2022-10-19T09:36:49.475Z,15.01
2022-10-19T09:39:23.515Z,14.96
2022-10-19T09:42:00.242Z,14.92
2022-10-19T09:44:33.348Z,14.84
2022-10-19T09:47:20.546Z,14.77
2022-10-19T09:49:51.872Z,14.65
2022-10-19T09:52:35.940Z,14.57
2022-10-19T09:55:18.761Z,14.46
2022-10-19T09:57:52.020Z,14.29
2022-10-19T10:00:26.068Z,14.14
2022-10-19T10:02:58.378Z,14.03
2022-10-19T10:05:35.229Z,13.97
2022-10-19T10:08:13.815Z,13.91
2022-10-19T10:10:49.735Z,13.89
2022-10-19T10:13:22.799Z,13.85
2022-10-19T10:16:01.666Z,13.78
2022-10-19T10:18:37.325Z,13.75
2022-10-19T10:21:25.397Z,13.77
2022-10-19T10:24:06.878Z,13.85
2022-10-19T10:26:43.685Z,13.86
2022-10-19T10:29:27.169Z,13.85
2022-10-19T10:32:02.940Z,13.81
2022-10-19T10:34:58.414Z,13.82
2022-10-19T10:37:37.245Z,13.80
2022-10-19T10:40:23.671Z,13.77
2022-10-19T10:42:57.663Z,13.74
2022-10-19T10:45:33.781Z,13.72
2022-10-19T10:48:21.498Z,13.68
2022-10-19T10:50:53.049Z,13.62
2022-10-19T10:53:37.420Z,13.62
2022-10-19T10:56:24.238Z,13.65
2022-10-19T10:59:02.964Z,13.68
2022-10-19T11:01:41.402Z,13.70
2022-10-19T11:04:19.187Z,13.73
2022-10-19T11:07:03.092Z,13.76
2022-10-19T11:09:36.010Z,13.80
2022-10-19T11:12:12.755Z,13.81
2022-10-19T11:14:50.969Z,13.87
2022-10-19T11:17:26.454Z,13.95
2022-10-19T11:19:58.049Z,14.04
2022-10-19T11:22:34.553Z,14.13
2022-10-19T11:25:24.876Z,14.18
2022-10-19T11:28:11.048Z,14.22
2022-10-19T11:30:56.583Z,14.21
2022-10-19T11:33:44.595Z,14.20
2022-10-19T11:36:29.766Z,14.14
2022-10-19T11:39:13.308Z,14.07
2022-10-19T11:41:54.877Z,14.01
2022-10-19T11:44:37.183Z,13.96
2022-10-19T11:47:24.894Z,13.92
2022-10-19T11:50:10.962Z,13.87
2022-10-19T11:52:50.779Z,13.83
2022-10-19T11:55:36.584Z,13.79
2022-10-19T11:58:32.340Z,13.73
2022-10-19T12:01:17.887Z,13.73
2022-10-19T12:04:34.439Z,13.74
2022-10-19T12:07:22.193Z,13.83
2022-10-19T12:10:01.906Z,13.98
2022-10-19T12:15:35.303Z,14.18
2022-10-19T12:18:15.414Z,14.20
2022-10-19T12:20:50.836Z,14.18
2022-10-19T12:23:29.741Z,14.15
2022-10-19T12:26:04.676Z,14.13
2022-10-19T12:28:40.330Z,14.07
2022-10-19T12:31:14.025Z,13.99
2022-10-19T12:33:53.456Z,13.92
2022-10-19T12:36:38.783Z,13.82
2022-10-19T12:39:18.952Z,13.75
2022-10-19T12:41:59.847Z,13.70
2022-10-19T12:44:45.423Z,13.65
2022-10-19T12:47:22.404Z,13.62
2022-10-19T12:49:56.748Z,13.61
2022-10-19T12:52:53.171Z,13.61
2022-10-19T12:55:34.678Z,13.60
2022-10-19T12:58:20.972Z,13.61
2022-10-19T13:01:02.126Z,13.61
2022-10-19T13:03:36.923Z,13.64
2022-10-19T13:06:13.250Z,13.70
2022-10-19T13:08:48.700Z,13.76
2022-10-19T13:11:21.540Z,13.86
2022-10-19T13:14:02.426Z,13.88
2022-10-19T13:17:01.867Z,13.88
2022-10-19T13:19:33.444Z,13.87
2022-10-19T13:22:28.806Z,13.84
2022-10-19T13:25:24.170Z,13.79
2022-10-19T13:27:58.148Z,13.72
2022-10-19T13:31:06.020Z,13.68
2022-10-19T13:33:55.579Z,13.61
2022-10-19T13:36:28.878Z,13.55
2022-10-19T13:39:16.573Z,13.49
2022-10-19T13:41:53.717Z,13.45
2022-10-19T13:44:34.444Z,13.42
2022-10-19T13:47:39.059Z,13.40
2022-10-19T13:50:27.934Z,13.40
2022-10-19T13:53:21.798Z,13.39
2022-10-19T14:00:06.291Z,13.36
2022-10-19T14:03:11.672Z,13.33
2022-10-19T14:06:00.776Z,13.30
2022-10-19T14:08:51.818Z,13.27
2022-10-19T14:11:28.194Z,13.23
2022-10-19T14:14:21.338Z,13.19
2022-10-19T14:16:59.638Z,13.17
2022-10-19T14:19:44.281Z,13.16
2022-10-19T14:22:26.986Z,13.14
2022-10-19T14:25:06.196Z,13.08
2022-10-19T14:27:39.586Z,13.07
2022-10-19T14:30:24.970Z,13.04
2022-10-19T14:33:00.986Z,12.99
2022-10-19T14:35:40.823Z,12.97
2022-10-19T14:38:23.181Z,12.97
2022-10-19T14:40:55.988Z,12.96
2022-10-19T14:43:30.477Z,12.95
2022-10-19T14:46:21.727Z,12.93
2022-10-19T14:48:59.837Z,12.90
2022-10-19T14:51:39.697Z,12.88
2022-10-19T14:54:17.662Z,12.85
2022-10-19T14:56:55.626Z,12.77
2022-10-19T14:59:31.051Z,12.68
2022-10-19T15:02:06.432Z,12.61
2022-10-19T15:04:40.987Z,12.54
2022-10-19T15:07:21.607Z,12.47
2022-10-19T15:09:57.239Z,12.42
2022-10-19T15:12:36.256Z,12.36
2022-10-19T15:15:17.502Z,12.30
2022-10-19T15:17:55.669Z,12.24
2022-10-19T15:20:34.094Z,12.18
2022-10-19T15:23:33.770Z,12.11
2022-10-19T15:26:17.276Z,12.03
2022-10-19T15:28:50.353Z,11.97
2022-10-19T15:31:25.410Z,11.90
2022-10-19T15:33:59.394Z,11.77
2022-10-19T15:36:33.494Z,11.66
2022-10-19T15:39:24.981Z,11.58
2022-10-19T15:41:57.932Z,11.51
2022-10-19T15:44:41.106Z,11.50
2022-10-19T15:47:24.950Z,11.52
2022-10-19T15:49:59.797Z,11.55
2022-10-19T15:52:33.506Z,11.58
2022-10-19T15:55:05.697Z,11.60
2022-10-19T15:57:39.842Z,11.62
2022-10-19T16:00:17.287Z,11.63
2022-10-19T16:02:48.973Z,11.64
2022-10-19T16:05:20.604Z,11.63
2022-10-19T16:07:52.747Z,11.63
2022-10-19T16:10:25.945Z,11.61
2022-10-19T16:12:57.420Z,11.55
2022-10-19T16:15:28.837Z,11.47
2022-10-19T16:18:01.714Z,11.41
2022-10-19T16:20:33.210Z,11.38
2022-10-19T16:23:04.655Z,11.37
2022-10-19T16:25:36.356Z,11.35
2022-10-19T16:28:07.847Z,11.33
2022-10-19T16:30:39.258Z,11.33
2022-10-19T16:33:10.738Z,11.34
2022-10-19T16:35:42.303Z,11.33
2022-10-19T16:38:13.941Z,11.30
2022-10-19T16:40:45.821Z,11.28
2022-10-19T16:43:17.268Z,11.27
2022-10-19T16:45:48.723Z,11.27
2022-10-19T16:48:23.857Z,11.29
2022-10-19T16:51:24.203Z,11.35
2022-10-19T16:53:58.976Z,11.41
2022-10-19T16:56:31.841Z,11.44
2022-10-19T16:59:06.831Z,11.50
2022-10-19T17:01:38.429Z,11.51
2022-10-19T17:04:10.041Z,11.52
2022-10-19T17:06:42.188Z,11.51
2022-10-19T17:09:37.016Z,11.51
2022-10-19T17:12:08.371Z,11.49
2022-10-19T17:14:41.522Z,11.47
2022-10-19T17:17:13.993Z,11.44
2022-10-19T17:19:45.442Z,11.42
2022-10-19T17:22:16.920Z,11.42
2022-10-19T17:24:48.604Z,11.41
2022-10-19T17:27:20.185Z,11.41
2022-10-19T17:29:51.643Z,11.41
2022-10-19T17:32:23.166Z,11.41
2022-10-19T17:34:56.945Z,11.41
2022-10-19T17:37:26.844Z,11.44
2022-10-19T17:39:58.278Z,11.50
2022-10-19T17:42:31.060Z,11.54
2022-10-19T17:45:02.471Z,11.57
2022-10-19T17:47:34.301Z,11.60
2022-10-19T17:50:06.842Z,11.61
2022-10-19T17:52:38.293Z,11.61
2022-10-19T17:55:13.149Z,11.60
2022-10-19T17:57:45.074Z,11.58
2022-10-19T18:00:17.621Z,11.55
2022-10-19T18:02:49.750Z,11.51
2022-10-19T18:05:21.310Z,11.47
2022-10-19T18:07:53.927Z,11.44
2022-10-19T18:10:25.403Z,11.41
2022-10-19T18:12:56.932Z,11.36
2022-10-19T18:15:28.395Z,11.32
2022-10-19T18:18:01.148Z,11.28
2022-10-19T18:20:32.576Z,11.27
2022-10-19T18:23:04.380Z,11.28
2022-10-19T18:25:53.412Z,11.30
2022-10-19T18:28:25.622Z,11.33
2022-10-19T18:30:57.170Z,11.38
2022-10-19T18:33:32.450Z,11.40
2022-10-19T18:36:06.009Z,11.41
2022-10-19T18:38:38.499Z,11.42
2022-10-19T18:43:54.604Z,11.36
2022-10-19T18:46:27.812Z,11.32
2022-10-19T18:49:00.594Z,11.30
2022-10-19T18:51:32.887Z,11.28
2022-10-19T18:54:04.763Z,11.26
2022-10-19T18:56:37.355Z,11.23
2022-10-19T18:59:08.861Z,11.20
2022-10-19T19:01:41.583Z,11.16
2022-10-19T19:04:13.189Z,11.14
2022-10-19T19:06:44.606Z,11.09
2022-10-19T19:09:18.586Z,11.08
2022-10-19T19:11:51.461Z,11.06
2022-10-19T19:14:22.921Z,11.06
2022-10-19T19:16:54.838Z,11.08
2022-10-19T19:19:27.539Z,11.08
2022-10-19T19:22:05.103Z,11.05
2022-10-19T19:24:39.559Z,10.98
2022-10-19T19:27:11.722Z,10.92
2022-10-19T19:29:43.106Z,10.86
2022-10-19T19:32:14.546Z,10.79
2022-10-19T19:34:46.160Z,10.69
2022-10-19T19:37:17.858Z,10.58
2022-10-19T19:39:49.274Z,10.48
2022-10-19T19:42:23.275Z,10.39
2022-10-19T19:44:57.244Z,10.31
2022-10-19T19:47:28.784Z,10.24
2022-10-19T19:50:00.331Z,10.17
2022-10-19T19:52:31.882Z,10.11
2022-10-19T19:55:03.642Z,10.07
2022-10-19T19:57:35.504Z,10.04
2022-10-19T20:00:09.841Z,10.03
2022-10-19T20:02:41.378Z,10.01
2022-10-19T20:05:12.941Z,9.99
2022-10-19T20:07:44.338Z,9.97
2022-10-19T20:10:16.467Z,9.94
2022-10-19T20:12:48.875Z,9.89
2022-10-19T20:15:21.119Z,9.82
2022-10-19T20:17:52.495Z,9.76
2022-10-19T20:20:23.887Z,9.68
2022-10-19T20:22:55.290Z,9.61
2022-10-19T20:25:26.882Z,9.53
2022-10-19T20:27:58.301Z,9.46
2022-10-19T20:30:29.700Z,9.38
2022-10-19T20:33:01.129Z,9.31
2022-10-19T20:35:32.694Z,9.23
2022-10-19T20:38:04.309Z,9.19
2022-10-19T20:40:36.266Z,9.17
2022-10-19T20:43:07.751Z,9.11
2022-10-19T20:45:39.837Z,9.16
2022-10-19T20:48:11.299Z,9.15
2022-10-19T20:50:42.752Z,9.12
2022-10-19T20:53:14.122Z,9.07
2022-10-19T20:55:45.501Z,9.03
2022-10-19T20:58:17.111Z,8.97
2022-10-19T21:00:48.556Z,8.91
2022-10-19T21:03:21.831Z,8.82
2022-10-19T21:05:53.240Z,8.77
2022-10-19T21:08:24.723Z,8.71
2022-10-19T21:10:56.315Z,8.64
2022-10-19T21:13:27.857Z,8.58
2022-10-19T21:15:59.237Z,8.51
2022-10-19T21:18:30.657Z,8.45
2022-10-19T21:21:02.040Z,8.43
2022-10-19T21:23:33.470Z,8.42
2022-10-19T21:26:05.123Z,8.43
2022-10-19T21:28:36.617Z,8.44
2022-10-19T21:31:10.513Z,8.45
2022-10-19T21:33:41.967Z,8.44
2022-10-19T21:36:15.371Z,8.42
2022-10-19T21:38:46.792Z,8.41
2022-10-19T21:41:23.733Z,8.38
2022-10-19T21:43:57.891Z,8.32
2022-10-19T21:46:30.190Z,8.28
2022-10-19T21:49:01.732Z,8.22
2022-10-19T21:51:37.598Z,8.15
2022-10-19T21:56:50.064Z,8.01
2022-10-19T21:59:21.484Z,7.94
2022-10-19T22:01:54.720Z,7.88
2022-10-19T22:04:27.169Z,7.82
2022-10-19T22:06:59.697Z,7.78
2022-10-19T22:09:31.300Z,7.76
2022-10-19T22:12:02.765Z,7.75
2022-10-19T22:14:34.179Z,7.75
2022-10-19T22:17:05.880Z,7.74
2022-10-19T22:19:37.761Z,7.71
2022-10-19T22:22:09.250Z,7.69
2022-10-19T22:24:41.032Z,7.64
2022-10-19T22:27:12.540Z,7.58
2022-10-19T22:29:44.354Z,7.49
2022-10-19T22:32:15.762Z,7.41
2022-10-19T22:34:47.259Z,7.34
2022-10-19T22:37:18.675Z,7.26
2022-10-19T22:39:50.202Z,7.18
2022-10-19T22:42:21.657Z,7.10
2022-10-19T22:44:53.075Z,7.03
2022-10-19T22:47:24.576Z,6.95
2022-10-19T22:49:56.019Z,6.87
2022-10-19T22:52:27.407Z,6.79
2022-10-19T22:54:58.877Z,6.74
2022-10-19T22:57:30.308Z,6.71
2022-10-19T23:00:01.704Z,6.69
2022-10-19T23:02:33.193Z,6.69
2022-10-19T23:05:04.908Z,6.70
2022-10-19T23:07:38.179Z,6.72
2022-10-19T23:10:11.099Z,6.72
2022-10-19T23:12:42.519Z,6.72
2022-10-19T23:15:14.640Z,6.70
2022-10-19T23:17:46.079Z,6.65
2022-10-19T23:20:18.034Z,6.60
2022-10-19T23:22:50.812Z,6.56
2022-10-19T23:25:22.354Z,6.49
2022-10-19T23:27:53.798Z,6.43
2022-10-19T23:30:25.320Z,6.37
2022-10-19T23:32:56.827Z,6.31
2022-10-19T23:35:28.311Z,6.26
2022-10-19T23:37:59.676Z,6.19
2022-10-19T23:40:31.147Z,6.14
2022-10-19T23:43:02.531Z,6.09
2022-10-19T23:45:34.179Z,6.07
2022-10-19T23:48:06.377Z,6.09
2022-10-19T23:50:37.914Z,6.10
2022-10-19T23:53:09.418Z,6.09
2022-10-19T23:55:40.848Z,6.09
2022-10-19T23:58:12.433Z,6.12
